sensor_id;sensor_type;location;lat;lon;timestamp;pressure;altitude;pressure_sealevel;temperature;humidity
60479;BME280;46321;48.398;11.754;2023-01-29T00:01:56;97540.81;;;-0.12;78.92
60479;BME280;46321;48.398;11.754;2023-01-29T00:04:21;97540.06;;;-0.14;79.11
60479;BME280;46321;48.398;11.754;2023-01-29T00:06:47;97538.56;;;-0.18;79.04
60479;BME280;46321;48.398;11.754;2023-01-29T00:09:12;97547.00;;;-0.31;79.61
60479;BME280;46321;48.398;11.754;2023-01-29T00:11:38;97548.84;;;-0.33;79.42
60479;BME280;46321;48.398;11.754;2023-01-29T00:14:04;97553.72;;;-0.27;79.04
60479;BME280;46321;48.398;11.754;2023-01-29T00:16:29;97548.16;;;-0.37;78.87
60479;BME280;46321;48.398;11.754;2023-01-29T00:18:55;97558.50;;;-0.35;78.84
60479;BME280;46321;48.398;11.754;2023-01-29T00:21:21;97556.81;;;-0.36;79.05
60479;BME280;46321;48.398;11.754;2023-01-29T00:23:47;97558.16;;;-0.29;78.90
60479;BME280;46321;48.398;11.754;2023-01-29T00:26:13;97561.47;;;-0.25;78.93
60479;BME280;46321;48.398;11.754;2023-01-29T00:28:39;97560.53;;;-0.24;78.99
60479;BME280;46321;48.398;11.754;2023-01-29T00:31:12;97558.25;;;-0.30;79.04
60479;BME280;46321;48.398;11.754;2023-01-29T00:33:38;97553.72;;;-0.27;79.14
60479;BME280;46321;48.398;11.754;2023-01-29T00:36:05;97558.88;;;-0.25;78.92
60479;BME280;46321;48.398;11.754;2023-01-29T00:38:31;97546.66;;;-0.25;79.18
60479;BME280;46321;48.398;11.754;2023-01-29T00:41:13;97546.66;;;-0.25;79.31
60479;BME280;46321;48.398;11.754;2023-01-29T00:43:57;97545.91;;;-0.27;79.10
60479;BME280;46321;48.398;11.754;2023-01-29T00:46:41;97541.94;;;0.00;78.09
60479;BME280;46321;48.398;11.754;2023-01-29T00:49:07;97537.66;;;0.15;77.16
60479;BME280;46321;48.398;11.754;2023-01-29T00:51:33;97521.78;;;0.20;76.87
60479;BME280;46321;48.398;11.754;2023-01-29T00:53:59;97531.25;;;0.21;76.47
60479;BME280;46321;48.398;11.754;2023-01-29T00:56:26;97533.22;;;0.17;76.42
60479;BME280;46321;48.398;11.754;2023-01-29T00:58:51;97533.22;;;0.17;76.46
60479;BME280;46321;48.398;11.754;2023-01-29T01:01:17;97544.38;;;0.19;76.43
60479;BME280;46321;48.398;11.754;2023-01-29T01:04:02;97539.16;;;0.19;76.40
60479;BME280;46321;48.398;11.754;2023-01-29T01:06:28;97536.38;;;0.22;76.06
60479;BME280;46321;48.398;11.754;2023-01-29T01:08:53;97535.63;;;0.20;75.76
60479;BME280;46321;48.398;11.754;2023-01-29T01:11:36;97548.66;;;0.20;75.40
60479;BME280;46321;48.398;11.754;2023-01-29T01:14:02;97551.25;;;0.20;75.00
60479;BME280;46321;48.398;11.754;2023-01-29T01:16:27;97536.47;;;0.21;74.95
60479;BME280;46321;48.398;11.754;2023-01-29T01:18:52;97545.22;;;0.20;74.70
60479;BME280;46321;48.398;11.754;2023-01-29T01:21:17;97549.34;;;0.24;74.87
60479;BME280;46321;48.398;11.754;2023-01-29T01:23:43;97558.56;;;0.30;74.97
60479;BME280;46321;48.398;11.754;2023-01-29T01:26:08;97553.38;;;0.30;74.45
60479;BME280;46321;48.398;11.754;2023-01-29T01:28:35;97565.22;;;0.19;74.55
60479;BME280;46321;48.398;11.754;2023-01-29T01:31:10;97552.94;;;0.21;74.43
60479;BME280;46321;48.398;11.754;2023-01-29T01:33:36;97550.34;;;0.21;74.26
60479;BME280;46321;48.398;11.754;2023-01-29T01:36:02;97564.13;;;0.24;74.29
60479;BME280;46321;48.398;11.754;2023-01-29T01:38:27;97565.22;;;0.19;74.34
60479;BME280;46321;48.398;11.754;2023-01-29T01:40:53;97551.25;;;0.20;75.02
60479;BME280;46321;48.398;11.754;2023-01-29T01:43:18;97550.25;;;0.23;74.46
60479;BME280;46321;48.398;11.754;2023-01-29T01:45:43;97549.25;;;0.26;74.70
60479;BME280;46321;48.398;11.754;2023-01-29T01:48:14;97548.34;;;0.27;74.85
60479;BME280;46321;48.398;11.754;2023-01-29T01:50:47;97537.31;;;0.21;74.76
60479;BME280;46321;48.398;11.754;2023-01-29T01:53:18;97541.19;;;0.14;74.35
60479;BME280;46321;48.398;11.754;2023-01-29T01:55:51;97547.13;;;0.16;74.54
60479;BME280;46321;48.398;11.754;2023-01-29T01:58:27;97542.69;;;0.18;74.80
60479;BME280;46321;48.398;11.754;2023-01-29T02:00:54;97546.13;;;0.19;74.56
60479;BME280;46321;48.398;11.754;2023-01-29T02:03:21;97546.38;;;0.14;74.75
60479;BME280;46321;48.398;11.754;2023-01-29T02:06:07;97553.03;;;0.20;74.80
60479;BME280;46321;48.398;11.754;2023-01-29T02:09:08;97545.38;;;0.17;74.38
60479;BME280;46321;48.398;11.754;2023-01-29T02:11:54;97546.28;;;0.16;73.94
60479;BME280;46321;48.398;11.754;2023-01-29T02:14:19;97551.50;;;0.16;73.59
60479;BME280;46321;48.398;11.754;2023-01-29T02:16:45;97548.66;;;0.20;72.64
60479;BME280;46321;48.398;11.754;2023-01-29T02:19:22;97542.38;;;0.25;71.55
60479;BME280;46321;48.398;11.754;2023-01-29T02:27:16;97542.09;;;0.29;70.17
60479;BME280;46321;48.398;11.754;2023-01-29T02:32:46;97532.53;;;0.30;69.27
60479;BME280;46321;48.398;11.754;2023-01-29T02:35:34;97530.66;;;0.32;69.42
60479;BME280;46321;48.398;11.754;2023-01-29T02:38:14;97528.91;;;0.32;69.65
60479;BME280;46321;48.398;11.754;2023-01-29T02:40:44;97522.28;;;0.27;69.33
60479;BME280;46321;48.398;11.754;2023-01-29T02:43:21;97518.44;;;0.18;69.01
60479;BME280;46321;48.398;11.754;2023-01-29T02:48:36;97520.75;;;0.22;69.61
60479;BME280;46321;48.398;11.754;2023-01-29T02:51:15;97522.84;;;0.16;69.94
60479;BME280;46321;48.398;11.754;2023-01-29T02:54:04;97531.44;;;0.18;70.31
60479;BME280;46321;48.398;11.754;2023-01-29T02:57:02;97512.88;;;0.08;71.03
60479;BME280;46321;48.398;11.754;2023-01-29T02:59:59;97528.84;;;0.18;71.25
60479;BME280;46321;48.398;11.754;2023-01-29T03:02:34;97520.19;;;0.33;70.89
60479;BME280;46321;48.398;11.754;2023-01-29T03:05:07;97537.22;;;0.23;71.17
60479;BME280;46321;48.398;11.754;2023-01-29T03:07:40;97532.50;;;0.14;70.89
60479;BME280;46321;48.398;11.754;2023-01-29T03:10:25;97534.06;;;0.18;71.07
60479;BME280;46321;48.398;11.754;2023-01-29T03:13:00;97532.38;;;0.17;71.28
60479;BME280;46321;48.398;11.754;2023-01-29T03:15:31;97536.72;;;0.16;71.05
60479;BME280;46321;48.398;11.754;2023-01-29T03:18:07;97545.13;;;0.21;71.32
60479;BME280;46321;48.398;11.754;2023-01-29T03:20:37;97538.56;;;0.47;70.65
60479;BME280;46321;48.398;11.754;2023-01-29T03:23:10;97538.06;;;0.56;70.40
60479;BME280;46321;48.398;11.754;2023-01-29T03:25:39;97529.63;;;0.67;69.74
60479;BME280;46321;48.398;11.754;2023-01-29T03:28:26;97525.91;;;0.87;69.38
60479;BME280;46321;48.398;11.754;2023-01-29T03:31:12;97532.78;;;0.88;68.79
60479;BME280;46321;48.398;11.754;2023-01-29T03:34:00;97526.81;;;0.39;70.48
60479;BME280;46321;48.398;11.754;2023-01-29T03:36:33;97520.44;;;0.29;71.27
60479;BME280;46321;48.398;11.754;2023-01-29T03:39:05;97519.84;;;0.24;71.68
60479;BME280;46321;48.398;11.754;2023-01-29T03:41:35;97509.53;;;0.22;71.56
60479;BME280;46321;48.398;11.754;2023-01-29T03:44:18;97506.16;;;0.20;71.09
60479;BME280;46321;48.398;11.754;2023-01-29T03:46:56;97503.63;;;0.18;70.80
60479;BME280;46321;48.398;11.754;2023-01-29T03:49:36;97515.22;;;0.13;71.22
60479;BME280;46321;48.398;11.754;2023-01-29T03:52:20;97508.56;;;0.07;70.30
60479;BME280;46321;48.398;11.754;2023-01-29T03:54:58;97507.75;;;0.06;68.38
60479;BME280;46321;48.398;11.754;2023-01-29T03:57:34;97514.63;;;0.07;68.24
60479;BME280;46321;48.398;11.754;2023-01-29T04:00:10;97518.84;;;0.10;69.06
60479;BME280;46321;48.398;11.754;2023-01-29T04:02:49;97520.25;;;0.16;69.38
60479;BME280;46321;48.398;11.754;2023-01-29T04:05:20;97525.56;;;0.14;69.46
60479;BME280;46321;48.398;11.754;2023-01-29T04:07:51;97527.31;;;0.14;69.40
60479;BME280;46321;48.398;11.754;2023-01-29T04:10:22;97517.22;;;0.07;69.16
60479;BME280;46321;48.398;11.754;2023-01-29T04:12:54;97524.69;;;0.14;69.40
60479;BME280;46321;48.398;11.754;2023-01-29T04:15:21;97516.22;;;0.10;70.25
60479;BME280;46321;48.398;11.754;2023-01-29T04:17:49;97523.13;;;0.11;70.78
60479;BME280;46321;48.398;11.754;2023-01-29T04:20:17;97528.06;;;0.16;70.98
60479;BME280;46321;48.398;11.754;2023-01-29T04:22:45;97519.19;;;0.20;71.18
60479;BME280;46321;48.398;11.754;2023-01-29T04:25:18;97514.72;;;0.22;71.18
60479;BME280;46321;48.398;11.754;2023-01-29T04:30:42;97529.84;;;0.15;70.89
60479;BME280;46321;48.398;11.754;2023-01-29T04:36:14;97526.31;;;0.16;70.12
60479;BME280;46321;48.398;11.754;2023-01-29T04:41:21;97515.63;;;0.21;68.62
60479;BME280;46321;48.398;11.754;2023-01-29T04:43:58;97515.53;;;0.22;68.79
60479;BME280;46321;48.398;11.754;2023-01-29T04:46:33;97517.50;;;0.19;69.33
60479;BME280;46321;48.398;11.754;2023-01-29T04:51:42;97517.06;;;0.10;70.56
60479;BME280;46321;48.398;11.754;2023-01-29T04:54:22;97518.94;;;0.08;70.49
60479;BME280;46321;48.398;11.754;2023-01-29T04:57:15;97522.78;;;0.17;70.71
60479;BME280;46321;48.398;11.754;2023-01-29T04:59:49;97523.69;;;0.16;70.67
60479;BME280;46321;48.398;11.754;2023-01-29T05:02:18;97515.63;;;0.21;70.70
60479;BME280;46321;48.398;11.754;2023-01-29T05:04:45;97516.72;;;0.17;70.61
60479;BME280;46321;48.398;11.754;2023-01-29T05:07:13;97517.41;;;0.20;70.60
60479;BME280;46321;48.398;11.754;2023-01-29T05:09:41;97524.47;;;0.18;70.81
60479;BME280;46321;48.398;11.754;2023-01-29T05:12:10;97532.22;;;0.20;70.59
60479;BME280;46321;48.398;11.754;2023-01-29T05:14:38;97540.28;;;0.15;70.65
60479;BME280;46321;48.398;11.754;2023-01-29T05:17:14;97541.34;;;0.11;70.21
60479;BME280;46321;48.398;11.754;2023-01-29T05:19:40;97544.72;;;0.13;70.60
60479;BME280;46321;48.398;11.754;2023-01-29T05:22:08;97534.56;;;0.08;70.83
60479;BME280;46321;48.398;11.754;2023-01-29T05:24:35;97540.41;;;0.12;70.41
60479;BME280;46321;48.398;11.754;2023-01-29T05:27:00;97539.41;;;0.15;70.10
60479;BME280;46321;48.398;11.754;2023-01-29T05:29:45;97545.47;;;0.15;70.10
60479;BME280;46321;48.398;11.754;2023-01-29T05:32:11;97545.47;;;0.15;70.10
60479;BME280;46321;48.398;11.754;2023-01-29T05:34:36;97544.38;;;0.19;70.18
60479;BME280;46321;48.398;11.754;2023-01-29T05:37:01;97538.56;;;0.14;70.16
60479;BME280;46321;48.398;11.754;2023-01-29T05:39:27;97545.47;;;0.15;70.08
60479;BME280;46321;48.398;11.754;2023-01-29T05:41:52;97548.13;;;0.14;69.87
60479;BME280;46321;48.398;11.754;2023-01-29T05:44:17;97541.19;;;0.14;69.91
60479;BME280;46321;48.398;11.754;2023-01-29T05:46:43;97539.66;;;0.10;69.69
60479;BME280;46321;48.398;11.754;2023-01-29T05:49:09;97543.22;;;0.09;69.77
60479;BME280;46321;48.398;11.754;2023-01-29T05:51:34;97543.03;;;0.12;69.42
60479;BME280;46321;48.398;11.754;2023-01-29T05:53:59;97545.63;;;0.12;69.57
60479;BME280;46321;48.398;11.754;2023-01-29T05:56:25;97543.22;;;0.09;69.32
60479;BME280;46321;48.398;11.754;2023-01-29T05:58:50;97544.13;;;0.08;69.74
60479;BME280;46321;48.398;11.754;2023-01-29T06:01:18;97537.22;;;0.07;69.69
60479;BME280;46321;48.398;11.754;2023-01-29T06:03:44;97546.81;;;0.06;69.79
60479;BME280;46321;48.398;11.754;2023-01-29T06:06:10;97540.00;;;0.04;69.25
60479;BME280;46321;48.398;11.754;2023-01-29T06:08:35;97536.03;;;-0.04;67.79
60479;BME280;46321;48.398;11.754;2023-01-29T06:11:01;97545.56;;;-0.03;67.66
60479;BME280;46321;48.398;11.754;2023-01-29T06:13:26;97543.47;;;0.04;67.74
60479;BME280;46321;48.398;11.754;2023-01-29T06:15:52;97539.06;;;0.05;67.49
60479;BME280;46321;48.398;11.754;2023-01-29T06:18:17;97536.78;;;-0.02;67.95
60479;BME280;46321;48.398;11.754;2023-01-29T06:20:42;97544.38;;;0.03;68.28
60479;BME280;46321;48.398;11.754;2023-01-29T06:23:08;97545.38;;;0.01;67.84
60479;BME280;46321;48.398;11.754;2023-01-29T06:25:33;97542.69;;;0.02;67.89
60479;BME280;46321;48.398;11.754;2023-01-29T06:27:58;97545.38;;;0.01;68.19
60479;BME280;46321;48.398;11.754;2023-01-29T06:30:24;97542.00;;;-0.02;68.51
60479;BME280;46321;48.398;11.754;2023-01-29T06:32:49;97538.56;;;-0.02;68.30
60479;BME280;46321;48.398;11.754;2023-01-29T06:35:14;97536.78;;;-0.02;68.66
60479;BME280;46321;48.398;11.754;2023-01-29T06:37:40;97533.44;;;-0.04;68.85
60479;BME280;46321;48.398;11.754;2023-01-29T06:40:05;97541.75;;;0.03;69.02
60479;BME280;46321;48.398;11.754;2023-01-29T06:42:34;97557.22;;;0.06;69.78
60479;BME280;46321;48.398;11.754;2023-01-29T06:44:59;97547.97;;;0.01;69.41
60479;BME280;46321;48.398;11.754;2023-01-29T06:47:25;97548.72;;;0.03;69.21
60479;BME280;46321;48.398;11.754;2023-01-29T06:49:51;97533.53;;;-0.05;69.15
60479;BME280;46321;48.398;11.754;2023-01-29T06:52:16;97544.47;;;0.02;69.31
60479;BME280;46321;48.398;11.754;2023-01-29T06:54:41;97540.16;;;0.01;69.71
60479;BME280;46321;48.398;11.754;2023-01-29T06:57:07;97542.59;;;0.04;69.60
60479;BME280;46321;48.398;11.754;2023-01-29T06:59:32;97540.75;;;0.06;69.11
60479;BME280;46321;48.398;11.754;2023-01-29T07:01:57;97536.75;;;0.00;69.13
60479;BME280;46321;48.398;11.754;2023-01-29T07:04:23;97535.66;;;0.04;69.08
60479;BME280;46321;48.398;11.754;2023-01-29T07:06:48;97524.53;;;0.01;68.54
60479;BME280;46321;48.398;11.754;2023-01-29T07:09:13;97517.56;;;0.01;68.75
60479;BME280;46321;48.398;11.754;2023-01-29T07:11:39;97510.41;;;0.05;68.10
60479;BME280;46321;48.398;11.754;2023-01-29T07:14:05;97511.38;;;0.04;68.20
60479;BME280;46321;48.398;11.754;2023-01-29T07:16:31;97513.63;;;0.10;68.21
60479;BME280;46321;48.398;11.754;2023-01-29T07:18:56;97505.66;;;0.13;67.96
60479;BME280;46321;48.398;11.754;2023-01-29T07:21:21;97509.16;;;0.12;68.52
60479;BME280;46321;48.398;11.754;2023-01-29T07:23:47;97510.88;;;0.13;68.42
60479;BME280;46321;48.398;11.754;2023-01-29T07:26:12;97501.09;;;0.17;68.07
60479;BME280;46321;48.398;11.754;2023-01-29T07:28:38;97495.81;;;0.18;68.37
60479;BME280;46321;48.398;11.754;2023-01-29T07:31:05;97504.47;;;0.19;68.03
60479;BME280;46321;48.398;11.754;2023-01-29T07:33:31;97498.41;;;0.18;68.46
60479;BME280;46321;48.398;11.754;2023-01-29T07:35:56;97497.25;;;0.24;68.38
60479;BME280;46321;48.398;11.754;2023-01-29T07:38:21;97504.13;;;0.25;68.04
60479;BME280;46321;48.398;11.754;2023-01-29T07:40:47;97509.06;;;0.30;68.13
60479;BME280;46321;48.398;11.754;2023-01-29T07:43:13;97514.28;;;0.30;68.23
60479;BME280;46321;48.398;11.754;2023-01-29T07:45:39;97516.03;;;0.29;68.21
60479;BME280;46321;48.398;11.754;2023-01-29T07:48:06;97520.09;;;0.35;67.94
60479;BME280;46321;48.398;11.754;2023-01-29T07:50:33;97512.38;;;0.33;68.08
60479;BME280;46321;48.398;11.754;2023-01-29T07:53:00;97512.09;;;0.38;67.96
60479;BME280;46321;48.398;11.754;2023-01-29T07:55:25;97514.88;;;0.35;67.70
60479;BME280;46321;48.398;11.754;2023-01-29T07:57:57;97512.28;;;0.35;67.77
60479;BME280;46321;48.398;11.754;2023-01-29T08:00:23;97507.06;;;0.35;67.51
60479;BME280;46321;48.398;11.754;2023-01-29T08:02:49;97517.22;;;0.40;67.88
60479;BME280;46321;48.398;11.754;2023-01-29T08:05:14;97519.59;;;0.44;67.72
60479;BME280;46321;48.398;11.754;2023-01-29T08:07:40;97516.03;;;0.45;67.77
60479;BME280;46321;48.398;11.754;2023-01-29T08:10:05;97512.44;;;0.48;67.76
60479;BME280;46321;48.398;11.754;2023-01-29T08:12:31;97520.34;;;0.47;67.65
60479;BME280;46321;48.398;11.754;2023-01-29T08:14:56;97520.34;;;0.47;67.65
60479;BME280;46321;48.398;11.754;2023-01-29T08:17:21;97522.00;;;0.48;67.86
60479;BME280;46321;48.398;11.754;2023-01-29T08:19:47;97537.47;;;0.51;68.07
60479;BME280;46321;48.398;11.754;2023-01-29T08:22:12;97529.47;;;0.54;68.29
60479;BME280;46321;48.398;11.754;2023-01-29T08:24:39;97543.34;;;0.54;68.16
60479;BME280;46321;48.398;11.754;2023-01-29T08:27:04;97537.47;;;0.51;67.89
60479;BME280;46321;48.398;11.754;2023-01-29T08:29:30;97537.97;;;0.57;68.13
60479;BME280;46321;48.398;11.754;2023-01-29T08:31:55;97541.22;;;0.61;67.81
60479;BME280;46321;48.398;11.754;2023-01-29T08:34:20;97545.88;;;0.56;67.95
60479;BME280;46321;48.398;11.754;2023-01-29T08:36:45;97548.13;;;0.62;68.13
60479;BME280;46321;48.398;11.754;2023-01-29T08:39:11;97560.16;;;0.65;67.87
60479;BME280;46321;48.398;11.754;2023-01-29T08:41:37;97574.75;;;0.67;67.81
60479;BME280;46321;48.398;11.754;2023-01-29T08:44:02;97565.28;;;0.66;68.08
60479;BME280;46321;48.398;11.754;2023-01-29T08:46:29;97573.09;;;0.66;67.52
60479;BME280;46321;48.398;11.754;2023-01-29T08:48:54;97577.22;;;0.71;67.23
60479;BME280;46321;48.398;11.754;2023-01-29T08:51:20;97576.38;;;0.70;67.13
60479;BME280;46321;48.398;11.754;2023-01-29T08:53:45;97579.81;;;0.71;67.38
60479;BME280;46321;48.398;11.754;2023-01-29T08:56:11;97567.63;;;0.71;67.62
60479;BME280;46321;48.398;11.754;2023-01-29T08:58:36;97577.22;;;0.71;66.67
60479;BME280;46321;48.398;11.754;2023-01-29T09:01:06;97564.59;;;0.63;66.37
60479;BME280;46321;48.398;11.754;2023-01-29T09:03:32;97575.72;;;0.66;67.37
60479;BME280;46321;48.398;11.754;2023-01-29T09:05:57;97581.50;;;0.72;67.57
60479;BME280;46321;48.398;11.754;2023-01-29T09:08:22;97585.63;;;0.76;67.31
60479;BME280;46321;48.398;11.754;2023-01-29T09:10:47;97586.78;;;0.70;67.86
60479;BME280;46321;48.398;11.754;2023-01-29T09:13:13;97588.00;;;0.64;67.85
60479;BME280;46321;48.398;11.754;2023-01-29T09:15:38;97584.38;;;0.67;67.52
60479;BME280;46321;48.398;11.754;2023-01-29T09:18:04;97585.69;;;0.74;67.40
60479;BME280;46321;48.398;11.754;2023-01-29T09:20:29;97578.81;;;0.73;67.70
60479;BME280;46321;48.398;11.754;2023-01-29T09:22:56;97585.63;;;0.76;68.19
60479;BME280;46321;48.398;11.754;2023-01-29T09:25:23;97590.59;;;0.81;67.54
60479;BME280;46321;48.398;11.754;2023-01-29T09:27:48;97595.50;;;0.85;67.35
60479;BME280;46321;48.398;11.754;2023-01-29T09:30:14;97594.75;;;0.83;67.40
60479;BME280;46321;48.398;11.754;2023-01-29T09:32:39;97598.91;;;0.87;67.06
60479;BME280;46321;48.398;11.754;2023-01-29T09:35:04;97596.72;;;0.79;67.09
60479;BME280;46321;48.398;11.754;2023-01-29T09:37:30;97603.53;;;0.82;67.14
60479;BME280;46321;48.398;11.754;2023-01-29T09:39:55;97605.03;;;0.86;67.12
60479;BME280;46321;48.398;11.754;2023-01-29T09:42:26;97601.22;;;0.92;67.02
60479;BME280;46321;48.398;11.754;2023-01-29T09:44:59;97598.34;;;0.97;66.93
60479;BME280;46321;48.398;11.754;2023-01-29T09:47:27;97593.97;;;0.97;66.32
60479;BME280;46321;48.398;11.754;2023-01-29T09:49:59;97594.63;;;1.01;66.10
60479;BME280;46321;48.398;11.754;2023-01-29T09:52:35;97595.31;;;1.05;65.54
60479;BME280;46321;48.398;11.754;2023-01-29T09:57:48;97597.75;;;1.08;65.14
60479;BME280;46321;48.398;11.754;2023-01-29T10:00:17;97600.34;;;1.08;65.46
60479;BME280;46321;48.398;11.754;2023-01-29T10:02:52;97600.28;;;1.09;65.59
60479;BME280;46321;48.398;11.754;2023-01-29T10:05:31;97594.97;;;1.11;64.98
60479;BME280;46321;48.398;11.754;2023-01-29T10:10:49;97593.28;;;1.10;64.90
60479;BME280;46321;48.398;11.754;2023-01-29T10:24:23;97582.09;;;0.61;63.14
60479;BME280;46321;48.398;11.754;2023-01-29T10:26:51;97576.06;;;0.60;64.08
60479;BME280;46321;48.398;11.754;2023-01-29T10:29:18;97583.94;;;0.59;65.36
60479;BME280;46321;48.398;11.754;2023-01-29T10:31:49;97575.88;;;0.63;65.87
60479;BME280;46321;48.398;11.754;2023-01-29T10:34:28;97572.59;;;0.60;65.70
60479;BME280;46321;48.398;11.754;2023-01-29T10:36:56;97579.50;;;0.44;66.33
60479;BME280;46321;48.398;11.754;2023-01-29T10:39:25;97583.44;;;0.52;65.75
60479;BME280;46321;48.398;11.754;2023-01-29T10:55:38;97558.13;;;0.70;65.46
60479;BME280;46321;48.398;11.754;2023-01-29T10:58:29;97555.78;;;0.65;65.23
60479;BME280;46321;48.398;11.754;2023-01-29T11:00:55;97551.56;;;0.63;65.14
60479;BME280;46321;48.398;11.754;2023-01-29T11:03:23;97553.91;;;0.67;64.60
60479;BME280;46321;48.398;11.754;2023-01-29T11:11:25;97552.16;;;0.68;63.72
60479;BME280;46321;48.398;11.754;2023-01-29T11:14:10;97541.63;;;0.70;63.50
60479;BME280;46321;48.398;11.754;2023-01-29T11:16:45;97554.16;;;0.79;63.81
60479;BME280;46321;48.398;11.754;2023-01-29T11:19:11;97544.56;;;0.79;63.13
60479;BME280;46321;48.398;11.754;2023-01-29T11:24:16;97531.44;;;0.81;63.69
60479;BME280;46321;48.398;11.754;2023-01-29T11:26:42;97532.78;;;0.88;63.25
60479;BME280;46321;48.398;11.754;2023-01-29T11:29:36;97528.44;;;0.73;62.88
60479;BME280;46321;48.398;11.754;2023-01-29T11:32:05;97532.06;;;1.01;62.37
60479;BME280;46321;48.398;11.754;2023-01-29T11:34:31;97521.59;;;0.86;62.00
60479;BME280;46321;48.398;11.754;2023-01-29T11:37:01;97524.72;;;0.77;63.19
60479;BME280;46321;48.398;11.754;2023-01-29T11:39:28;97502.59;;;0.84;62.85
60479;BME280;46321;48.398;11.754;2023-01-29T11:42:02;97495.53;;;0.86;61.88
60479;BME280;46321;48.398;11.754;2023-01-29T11:44:35;97477.84;;;0.91;61.66
60479;BME280;46321;48.398;11.754;2023-01-29T11:47:11;97464.59;;;0.80;61.43
60479;BME280;46321;48.398;11.754;2023-01-29T11:49:49;97461.47;;;0.89;61.36
60479;BME280;46321;48.398;11.754;2023-01-29T11:52:21;97455.94;;;0.79;61.87
60479;BME280;46321;48.398;11.754;2023-01-29T11:54:52;97473.69;;;0.58;63.21
60479;BME280;46321;48.398;11.754;2023-01-29T11:57:26;97475.53;;;0.56;63.26
60479;BME280;46321;48.398;11.754;2023-01-29T11:59:55;97477.31;;;0.70;63.03
60479;BME280;46321;48.398;11.754;2023-01-29T12:02:23;97476.78;;;0.79;63.83
60479;BME280;46321;48.398;11.754;2023-01-29T12:04:52;97476.97;;;0.76;63.71
60479;BME280;46321;48.398;11.754;2023-01-29T12:07:19;97463.38;;;0.71;63.64
60479;BME280;46321;48.398;11.754;2023-01-29T12:09:56;97476.38;;;0.87;63.82
60479;BME280;46321;48.398;11.754;2023-01-29T12:12:35;97482.16;;;1.07;62.39
60479;BME280;46321;48.398;11.754;2023-01-29T12:15:14;97487.50;;;1.35;60.99
60479;BME280;46321;48.398;11.754;2023-01-29T12:17:43;97490.03;;;1.36;59.86
60479;BME280;46321;48.398;11.754;2023-01-29T12:20:15;97492.34;;;1.41;60.47
60479;BME280;46321;48.398;11.754;2023-01-29T12:22:49;97481.09;;;1.41;60.95
60479;BME280;46321;48.398;11.754;2023-01-29T12:25:39;97478.84;;;1.49;61.31
60479;BME280;46321;48.398;11.754;2023-01-29T12:31:20;97470.72;;;1.54;61.40
60479;BME280;46321;48.398;11.754;2023-01-29T12:34:00;97467.94;;;1.42;61.78
60479;BME280;46321;48.398;11.754;2023-01-29T12:38:58;97446.03;;;1.30;61.42
60479;BME280;46321;48.398;11.754;2023-01-29T12:41:31;97442.88;;;1.25;61.23
60479;BME280;46321;48.398;11.754;2023-01-29T12:44:05;97440.06;;;1.28;61.35
60479;BME280;46321;48.398;11.754;2023-01-29T12:46:39;97437.00;;;1.36;61.17
60479;BME280;46321;48.398;11.754;2023-01-29T12:49:12;97417.25;;;1.32;61.43
60479;BME280;46321;48.398;11.754;2023-01-29T12:51:47;97418.09;;;1.18;62.09
60479;BME280;46321;48.398;11.754;2023-01-29T12:54:19;97407.38;;;0.93;63.35
60479;BME280;46321;48.398;11.754;2023-01-29T12:56:48;97404.19;;;0.88;63.10
60479;BME280;46321;48.398;11.754;2023-01-29T13:01:56;97394.16;;;0.96;62.96
60479;BME280;46321;48.398;11.754;2023-01-29T13:04:39;97391.81;;;0.91;62.78
60479;BME280;46321;48.398;11.754;2023-01-29T13:07:13;97387.81;;;1.00;63.00
60479;BME280;46321;48.398;11.754;2023-01-29T13:09:42;97381.94;;;0.82;63.07
60479;BME280;46321;48.398;11.754;2023-01-29T13:12:13;97391.44;;;0.98;62.92
60479;BME280;46321;48.398;11.754;2023-01-29T13:19:48;97392.09;;;1.16;61.34
60479;BME280;46321;48.398;11.754;2023-01-29T13:22:22;97387.88;;;1.28;61.08
60479;BME280;46321;48.398;11.754;2023-01-29T13:24:49;97383.69;;;1.25;61.74
60479;BME280;46321;48.398;11.754;2023-01-29T13:27:21;97382.13;;;1.23;61.88
60479;BME280;46321;48.398;11.754;2023-01-29T13:29:47;97377.44;;;1.28;61.34
60479;BME280;46321;48.398;11.754;2023-01-29T13:32:19;97376.78;;;1.39;61.71
60479;BME280;46321;48.398;11.754;2023-01-29T13:34:47;97381.00;;;1.27;63.25
60479;BME280;46321;48.398;11.754;2023-01-29T13:37:22;97378.41;;;1.27;62.29
60479;BME280;46321;48.398;11.754;2023-01-29T13:39:53;97371.66;;;1.37;61.71
60479;BME280;46321;48.398;11.754;2023-01-29T13:42:36;97376.44;;;1.31;60.95
60479;BME280;46321;48.398;11.754;2023-01-29T13:45:05;97372.50;;;1.38;60.85
60479;BME280;46321;48.398;11.754;2023-01-29T13:47:34;97370.66;;;1.40;60.96
60479;BME280;46321;48.398;11.754;2023-01-29T13:52:39;97362.94;;;1.24;61.32
60479;BME280;46321;48.398;11.754;2023-01-29T14:07:55;97347.28;;;1.39;61.56
60479;BME280;46321;48.398;11.754;2023-01-29T14:10:23;97354.81;;;1.43;60.78
60479;BME280;46321;48.398;11.754;2023-01-29T14:12:54;97345.78;;;1.34;61.65
60479;BME280;46321;48.398;11.754;2023-01-29T14:15:38;97347.56;;;1.34;61.30
60479;BME280;46321;48.398;11.754;2023-01-29T14:20:40;97360.31;;;1.39;61.48
60479;BME280;46321;48.398;11.754;2023-01-29T14:25:55;97371.03;;;1.34;61.43
60479;BME280;46321;48.398;11.754;2023-01-29T14:28:28;97382.31;;;1.34;61.51
60479;BME280;46321;48.398;11.754;2023-01-29T14:30:55;97381.47;;;1.34;62.02
60479;BME280;46321;48.398;11.754;2023-01-29T14:35:58;97369.09;;;1.23;62.03
60479;BME280;46321;48.398;11.754;2023-01-29T14:38:26;97367.00;;;1.28;61.74
60479;BME280;46321;48.398;11.754;2023-01-29T14:41:03;97375.13;;;1.23;61.62
60479;BME280;46321;48.398;11.754;2023-01-29T14:43:29;97371.13;;;1.18;62.46
60479;BME280;46321;48.398;11.754;2023-01-29T14:48:58;97347.38;;;1.22;61.63
60479;BME280;46321;48.398;11.754;2023-01-29T14:51:24;97342.81;;;1.11;61.82
60479;BME280;46321;48.398;11.754;2023-01-29T14:53:58;97351.41;;;1.13;62.17
60479;BME280;46321;48.398;11.754;2023-01-29T14:56:36;97348.69;;;1.15;62.18